• Join FlightAware (Why Join?)
  • Login
  • US Flag 
06:09AM EDT


 

Airport Tracker/Info


-or-


 

Live Flight TrackerFlight Track Log ✈ MTN8324 ✈ 03-May-2013 ✈ KEWR - KBUF

Flight Track Log - Related Links

Times and Time Zones

All times are in EDT time to prevent confusion due to time zone crossing. See the MTN8324 flight status page for this flight to view local times or setup timezone preferences in your user account.

Time Position Orientation Groundspeed Altitude Reporting Facility
EDT Latitude Longitude Course Direction KTS MPH feet Rate Location/Type
04:31AM 40.7194 -74.1581 342° North 136 157 1,900  Level New York Center
04:32AM 40.7333 -74.1667 335° Northwest 142 163 2,100 1,260 Climbing New York TRACON
04:33AM 40.7833 -74.2000 333° Northwest 184 212 3,600 1,500 Climbing New York TRACON
04:34AM 40.8333 -74.2167 346° North 190 219 5,100 1,500 Climbing New York TRACON
04:35AM 40.8667 -74.2500 323° Northwest 190 219 6,700 1,500 Climbing New York TRACON
04:36AM 40.9167 -74.2833 333° Northwest 191 220 8,200 1,440 Climbing New York TRACON
04:37AM 41.1487 -74.3790 342° North  Level FlightAware Approximate
04:37AM 40.9667 -74.3167 333° Northwest 187 215 9,600  Level New York TRACON
04:38AM 41.0167 -74.3333 346° North 183 211 11,000 1,200 Climbing New York TRACON
04:39AM 41.0667 -74.3667 333° Northwest 187 215 12,000 600 Climbing New York TRACON
04:39AM 41.0936 -74.3914 325° Northwest 210 242 12,100  Climbing New York Center
04:40AM 41.1550 -74.4306 334° Northwest 239 275 12,100 -60 Level New York Center
04:41AM 41.2181 -74.4725 333° Northwest 250 288 12,000 -60 Descending New York Center
04:42AM 41.2856 -74.5150 335° Northwest 256 295 12,000  Level New York Center
04:43AM 41.3508 -74.5544 336° Northwest 256 295 12,000 660 Level New York Center
04:44AM 41.4122 -74.5939 334° Northwest 250 288 13,300 1,380 Climbing New York Center
04:45AM 41.4433 -74.6622 301° West 216 249 14,800 1,080 Climbing New York Center
04:46AM 41.4764 -74.7278 304° West 216 249 15,500 600 Climbing New York Center
04:47AM 41.5097 -74.7906 305° West 216 249 16,100 300 Climbing New York Center
04:48AM 41.5467 -74.8678 303° West 228 262 16,100 -60 Level New York Center
04:49AM 41.5856 -74.9478 303° West 253 291 16,000 -120 Descending New York Center
04:50AM 41.6225 -75.0222 304° West 267 307 15,900 -60 Descending New York Center
04:51AM 41.6669 -75.1139 303° West 267 307 15,900  Level New York Center
04:52AM 41.7075 -75.1997 302° West 267 307 15,900  Level New York Center
04:53AM 41.7481 -75.2831 303° West 267 307 16,000  Climbing New York Center
04:54AM 41.7847 -75.3581 303° West 272 313 15,900 -60 Descending New York Center
04:55AM 41.8253 -75.4442 302° West 272 313 15,900  Level New York Center
04:56AM 41.8714 -75.5367 304° West 272 313 15,900  Level New York Center
04:57AM 41.9136 -75.6233 303° West 272 313 15,900  Level New York Center
04:58AM 41.9539 -75.7100 302° West 272 313 15,900  Level New York Center
04:59AM 41.9939 -75.7967 302° West 272 313 15,900  Level New York Center
05:00AM 42.0342 -75.8806 303° West 277 319 15,900  Level New York Center
05:01AM 42.0703 -75.9589 302° West 277 319 15,900  Level New York Center
05:02AM 42.0994 -76.0533 293° West 272 313 16,000  Climbing New York Center
05:03AM 42.1306 -76.1481 294° West 272 313 15,900 -60 Descending New York Center
05:04AM 42.1594 -76.2428 292° West 272 313 15,900  Level New York Center
05:05AM 42.1906 -76.3378 294° West 277 319 15,900  Level New York Center
05:06AM 42.2236 -76.4303 296° West 277 319 15,900  Level New York Center
05:07AM 42.2525 -76.5250 292° West 277 319 15,900  Level New York Center
05:08AM 42.2831 -76.6203 293° West 277 319 16,000  Climbing New York Center
05:09AM 42.3161 -76.7131 296° West 277 319 16,000 -60 Level New York Center
05:10AM 42.3447 -76.8053 293° West 277 319 15,900 -60 Descending New York Center
05:11AM 42.3753 -76.8981 294° West 277 319 15,900  Level New York Center
05:12AM 42.4136 -77.0225 293° West 291 335 16,000  Climbing Cleveland Center
05:13AM 42.4414 -77.1111 293° West 285 328 16,000  Level Cleveland Center
05:14AM 42.4733 -77.2078 294° West 279 321 16,000  Level Cleveland Center
05:15AM 42.5011 -77.3019 292° West 279 321 16,000 -240 Level Cleveland Center
05:16AM 42.5331 -77.4019 293° West 279 321 15,600 -840 Descending Cleveland Center
05:17AM 42.5675 -77.5158 292° West 285 328 14,400 -1,200 Descending Cleveland Center
05:18AM 42.6036 -77.6183 296° West 297 342 13,300 -1,140 Descending Cleveland Center
05:19AM 42.6331 -77.7131 293° West 290 334 12,200 -1,200 Descending Cleveland Center
05:20AM 42.6644 -77.8103 294° West 284 327 11,000 -600 Descending Cleveland Center
05:21AM 42.6919 -77.9081 291° West 284 327 11,000  Level Cleveland Center
05:22AM 42.7211 -78.0058 292° West 290 334 11,000  Level Cleveland Center
05:23AM 42.7525 -78.1033 294° West 290 334 11,000 -60 Level Cleveland Center
05:24AM 42.7817 -78.2042 292° West 290 334 10,900 -900 Descending Cleveland Center
05:25AM 42.8131 -78.3047 293° West 299 344 9,300 -1,560 Descending Cleveland Center
05:26AM 42.8211 -78.4064 276° West 286 329 7,800 -1,500 Descending Cleveland Center
05:27AM 42.8228 -78.4969 271° West 274 315 6,400 -1,500 Descending Cleveland Center
05:28AM 42.8267 -78.5989 273° West 274 315 4,900 -1,620 Descending Cleveland Center
05:29AM 42.8408 -78.7031 281° West 263 303 3,200 -1,200 Descending Cleveland Center
05:30AM 42.8692 -78.7675 301° West 223 257 2,500 -780 Descending Cleveland Center
05:31AM 42.8833 -78.7667 North 165 190 2,200 -1,020 Descending Buffalo TRACON
05:32AM 42.9167 -78.7667 360° North 121 139 1,200 3,240 Descending Buffalo TRACON
05:33AM 42.9631 -78.7844 344° North 120 138 11,000 5,880 Climbing Cleveland Center
05:35AM 42.9404 -78.7306 109° East  Level Estimated